createdAt,value
2023-12-05T00:02:08.613Z,86.25
2023-12-05T00:04:37.782Z,86.22
2023-12-05T00:07:05.367Z,86.19
2023-12-05T00:09:33.357Z,86.31
2023-12-05T00:12:00.665Z,86.09
2023-12-05T00:14:28.003Z,86.08
2023-12-05T00:16:55.258Z,85.88
2023-12-05T00:19:22.939Z,85.83
2023-12-05T00:21:50.394Z,86.14
2023-12-05T00:24:17.832Z,86.30
2023-12-05T00:26:45.317Z,86.60
2023-12-05T00:29:12.691Z,86.42
2023-12-05T00:31:40.081Z,86.19
2023-12-05T00:34:07.571Z,85.49
2023-12-05T00:36:34.977Z,85.34
2023-12-05T00:39:02.560Z,85.54
2023-12-05T00:41:29.865Z,85.48
2023-12-05T00:43:57.293Z,85.53
2023-12-05T00:46:25.115Z,85.97
2023-12-05T00:48:52.528Z,85.78
2023-12-05T00:51:19.937Z,85.85
2023-12-05T00:53:47.401Z,86.06
2023-12-05T00:56:15.887Z,85.75
2023-12-05T00:58:43.235Z,84.90
2023-12-05T01:01:10.564Z,85.03
2023-12-05T01:03:38.122Z,85.40
2023-12-05T01:06:06.221Z,85.37
2023-12-05T01:08:33.690Z,85.41
2023-12-05T01:11:01.336Z,85.73
2023-12-05T01:13:28.768Z,86.29
2023-12-05T01:15:56.173Z,86.64
2023-12-05T01:18:23.730Z,86.62
2023-12-05T01:20:51.139Z,86.19
2023-12-05T01:23:18.459Z,85.96
2023-12-05T01:25:45.775Z,86.05
2023-12-05T01:28:13.261Z,86.11
2023-12-05T01:30:41.031Z,86.07
2023-12-05T01:33:08.701Z,86.18
2023-12-05T01:35:36.043Z,85.58
2023-12-05T01:38:03.558Z,85.33
2023-12-05T01:40:30.953Z,85.78
2023-12-05T01:42:58.435Z,85.52
2023-12-05T01:45:25.855Z,85.92
2023-12-05T01:47:53.392Z,85.98
2023-12-05T01:50:23.726Z,86.25
2023-12-05T01:52:53.053Z,86.31
2023-12-05T01:55:20.502Z,86.16
2023-12-05T01:57:48.014Z,86.07
2023-12-05T02:00:18.444Z,86.04
2023-12-05T02:02:46.128Z,85.66
2023-12-05T02:05:14.905Z,85.83
2023-12-05T02:07:42.686Z,85.62
2023-12-05T02:10:11.433Z,85.61
2023-12-05T02:12:40.201Z,85.72
2023-12-05T02:15:08.527Z,85.48
2023-12-05T02:17:38.984Z,85.54
2023-12-05T02:20:27.453Z,85.87
2023-12-05T02:23:16.751Z,85.37
2023-12-05T02:25:59.320Z,85.53
2023-12-05T02:28:26.915Z,85.72
2023-12-05T02:30:54.264Z,85.86
2023-12-05T02:33:21.835Z,85.72
2023-12-05T02:35:49.178Z,85.44
2023-12-05T02:38:25.730Z,85.29
2023-12-05T02:41:19.978Z,84.65
2023-12-05T02:43:49.404Z,85.22
2023-12-05T02:46:19.722Z,85.15
2023-12-05T02:48:47.237Z,85.13
2023-12-05T02:51:14.680Z,84.78
2023-12-05T02:53:41.984Z,84.80
2023-12-05T02:56:09.546Z,84.49
2023-12-05T02:58:36.891Z,84.30
2023-12-05T03:01:04.750Z,84.16
2023-12-05T03:03:32.155Z,84.41
2023-12-05T03:05:59.648Z,84.55
2023-12-05T03:08:26.994Z,83.85
2023-12-05T03:10:59.730Z,84.41
2023-12-05T03:13:31.193Z,84.98
2023-12-05T03:15:58.501Z,85.28
2023-12-05T03:18:27.692Z,85.02
2023-12-05T03:20:55.057Z,84.44
2023-12-05T03:23:22.579Z,84.52
2023-12-05T03:25:49.974Z,85.07
2023-12-05T03:28:17.431Z,85.02
2023-12-05T03:30:44.767Z,85.30
2023-12-05T03:33:12.378Z,85.26
2023-12-05T03:35:40.048Z,85.63
2023-12-05T03:38:07.361Z,85.36
2023-12-05T03:40:34.687Z,85.59
2023-12-05T03:43:02.127Z,85.33
2023-12-05T03:45:29.401Z,84.91
2023-12-05T03:47:57.286Z,84.98
2023-12-05T03:50:25.828Z,85.01
2023-12-05T03:52:53.358Z,84.86
2023-12-05T03:55:20.673Z,84.85
2023-12-05T03:57:48.069Z,84.97
2023-12-05T04:00:16.333Z,85.25
2023-12-05T04:02:45.049Z,85.22
2023-12-05T04:05:13.263Z,84.88
2023-12-05T04:07:41.814Z,84.33
2023-12-05T04:10:10.722Z,84.21
2023-12-05T04:12:39.498Z,83.28
2023-12-05T04:15:07.708Z,83.43
2023-12-05T04:17:35.340Z,83.42
2023-12-05T04:20:02.715Z,82.97
2023-12-05T04:22:30.215Z,83.38
2023-12-05T04:24:57.574Z,83.43
2023-12-05T04:27:25.311Z,83.48
2023-12-05T04:29:52.726Z,83.90
2023-12-05T04:32:20.149Z,84.03
2023-12-05T04:34:48.256Z,83.99
2023-12-05T04:37:15.754Z,83.75
2023-12-05T04:39:43.093Z,83.85
2023-12-05T04:42:10.580Z,84.36
2023-12-05T04:44:37.981Z,84.51
2023-12-05T04:47:05.383Z,84.78
2023-12-05T04:49:34.984Z,83.63
2023-12-05T04:52:02.611Z,83.39
2023-12-05T04:54:29.992Z,83.66
2023-12-05T04:56:57.526Z,83.86
2023-12-05T04:59:24.992Z,83.99
2023-12-05T05:01:52.444Z,83.69
2023-12-05T05:04:19.899Z,84.14
2023-12-05T05:06:47.453Z,83.85
2023-12-05T05:09:14.864Z,83.41
2023-12-05T05:11:42.464Z,83.39
2023-12-05T05:14:09.817Z,83.30
2023-12-05T05:16:37.298Z,83.65
2023-12-05T05:19:04.983Z,83.29
2023-12-05T05:21:32.489Z,82.63
2023-12-05T05:24:00.044Z,82.70
2023-12-05T05:26:27.452Z,83.43
2023-12-05T05:28:54.798Z,84.17
2023-12-05T05:31:22.448Z,84.48
2023-12-05T05:33:49.945Z,84.11
2023-12-05T05:36:17.470Z,84.35
2023-12-05T05:38:45.038Z,84.57
2023-12-05T05:41:12.886Z,84.67
2023-12-05T05:43:40.258Z,84.73
2023-12-05T05:46:08.032Z,84.30
2023-12-05T05:48:35.557Z,83.90
2023-12-05T05:51:03.087Z,84.26
2023-12-05T05:53:30.419Z,86.64
2023-12-05T05:56:00.974Z,84.21
2023-12-05T05:58:28.909Z,83.13
2023-12-05T06:00:56.710Z,82.49
2023-12-05T06:03:25.340Z,82.31
2023-12-05T06:05:52.944Z,82.18
2023-12-05T06:08:20.725Z,81.76
2023-12-05T06:10:48.084Z,81.63
2023-12-05T06:13:15.565Z,81.39
2023-12-05T06:15:43.101Z,80.84
2023-12-05T06:18:12.603Z,81.82
2023-12-05T06:20:40.136Z,80.53
2023-12-05T06:23:07.995Z,81.03
2023-12-05T06:25:35.435Z,82.05
2023-12-05T06:28:03.261Z,81.64
2023-12-05T06:30:30.842Z,81.12
2023-12-05T06:32:58.444Z,81.05
2023-12-05T06:35:25.956Z,81.55
2023-12-05T06:37:53.984Z,82.66
2023-12-05T06:40:21.611Z,81.82
2023-12-05T06:42:49.179Z,81.19
2023-12-05T06:45:16.819Z,80.72
2023-12-05T06:47:45.051Z,80.82
2023-12-05T06:50:13.237Z,79.40
2023-12-05T06:52:42.270Z,78.31
2023-12-05T06:55:10.573Z,78.39
2023-12-05T06:57:38.163Z,79.89
2023-12-05T07:00:06.823Z,78.38
2023-12-05T07:02:34.505Z,79.34
2023-12-05T07:05:09.022Z,80.16
2023-12-05T07:07:45.488Z,77.76
2023-12-05T07:10:14.795Z,78.37
2023-12-05T07:12:42.607Z,79.30
2023-12-05T07:15:10.623Z,79.47
2023-12-05T07:17:41.164Z,81.80
2023-12-05T07:20:13.379Z,79.54
2023-12-05T07:22:41.380Z,77.52
2023-12-05T07:25:08.929Z,76.15
2023-12-05T07:27:37.473Z,75.48
2023-12-05T07:30:06.176Z,74.10
2023-12-05T07:32:34.119Z,74.67
2023-12-05T07:35:03.356Z,72.76
2023-12-05T07:37:31.393Z,73.53
2023-12-05T07:39:58.872Z,75.81
2023-12-05T07:42:26.793Z,76.77
2023-12-05T07:44:55.514Z,79.11
2023-12-05T07:47:25.095Z,77.42
2023-12-05T07:49:52.802Z,77.10
2023-12-05T07:52:20.699Z,79.27
2023-12-05T07:54:48.492Z,77.71
2023-12-05T07:57:23.354Z,78.16
2023-12-05T07:59:51.110Z,78.88
2023-12-05T08:02:18.573Z,79.78
2023-12-05T08:04:46.141Z,80.14
2023-12-05T08:07:13.805Z,78.50
2023-12-05T08:09:41.856Z,79.44
2023-12-05T08:12:09.585Z,79.72
2023-12-05T08:14:37.592Z,77.47
2023-12-05T08:17:06.293Z,77.81
2023-12-05T08:19:34.548Z,78.22
2023-12-05T08:22:02.279Z,77.72
2023-12-05T08:24:29.900Z,77.09
2023-12-05T08:26:57.598Z,76.98
2023-12-05T08:29:25.082Z,75.90
2023-12-05T08:31:53.524Z,76.37
2023-12-05T08:34:21.596Z,76.19
2023-12-05T08:36:49.608Z,78.28
2023-12-05T08:39:17.201Z,76.46
2023-12-05T08:41:45.560Z,77.79
2023-12-05T08:44:13.662Z,77.68
2023-12-05T08:46:41.246Z,76.84
2023-12-05T08:49:08.731Z,77.72
2023-12-05T08:51:36.720Z,79.72
2023-12-05T08:54:05.373Z,78.19
2023-12-05T08:56:33.692Z,77.33
2023-12-05T08:59:07.445Z,78.54
2023-12-05T09:01:39.740Z,79.03
2023-12-05T09:04:19.231Z,78.25
2023-12-05T09:06:56.600Z,77.52
2023-12-05T09:09:25.620Z,75.29
2023-12-05T09:11:54.575Z,76.05
2023-12-05T09:14:23.543Z,77.56
2023-12-05T09:16:57.985Z,78.23
2023-12-05T09:19:30.332Z,78.17
2023-12-05T09:22:03.963Z,78.05
2023-12-05T09:24:34.800Z,78.47
2023-12-05T09:27:04.009Z,80.02
2023-12-05T09:29:32.490Z,80.23
2023-12-05T09:32:00.200Z,79.84
2023-12-05T09:34:28.180Z,79.88
2023-12-05T09:36:55.778Z,79.06
2023-12-05T09:39:23.386Z,78.93
2023-12-05T09:41:54.703Z,78.36
2023-12-05T09:44:25.473Z,78.26
2023-12-05T09:46:53.528Z,77.53
2023-12-05T09:49:21.457Z,78.27
2023-12-05T09:51:48.984Z,78.20
2023-12-05T09:54:16.676Z,77.71
2023-12-05T09:56:45.059Z,77.81
2023-12-05T09:59:12.774Z,76.51
2023-12-05T10:01:41.047Z,76.33
2023-12-05T10:04:13.313Z,76.96
2023-12-05T10:06:41.870Z,75.85
2023-12-05T10:09:11.890Z,75.74
2023-12-05T10:11:39.754Z,76.48
2023-12-05T10:14:07.727Z,74.22
2023-12-05T10:16:35.345Z,75.09
2023-12-05T10:19:03.531Z,75.28
2023-12-05T10:21:31.252Z,75.35
2023-12-05T10:23:59.335Z,75.63
2023-12-05T10:26:27.357Z,75.61
2023-12-05T10:28:56.974Z,74.18
2023-12-05T10:31:25.288Z,75.19
2023-12-05T10:33:53.424Z,74.90
2023-12-05T10:36:22.032Z,74.59
2023-12-05T10:38:51.084Z,74.84
2023-12-05T10:41:25.487Z,74.18
2023-12-05T10:43:57.321Z,74.31
2023-12-05T10:46:26.520Z,74.04
2023-12-05T10:48:55.713Z,75.38
2023-12-05T10:51:28.714Z,73.68
2023-12-05T10:54:00.410Z,74.94
2023-12-05T10:56:29.470Z,74.11
2023-12-05T10:58:57.627Z,74.07
2023-12-05T11:01:26.709Z,72.82
2023-12-05T11:03:54.478Z,75.17
2023-12-05T11:06:22.317Z,75.18
2023-12-05T11:08:50.701Z,73.82
2023-12-05T11:11:20.044Z,73.90
2023-12-05T11:13:47.869Z,72.77
2023-12-05T11:16:27.626Z,72.24
2023-12-05T11:19:14.372Z,72.78
2023-12-05T11:22:03.443Z,73.27
2023-12-05T11:24:52.764Z,73.85
2023-12-05T11:27:40.031Z,73.74
2023-12-05T11:30:44.804Z,74.19
2023-12-05T11:33:33.972Z,74.42
2023-12-05T11:36:05.466Z,75.38
2023-12-05T11:38:33.441Z,74.25
2023-12-05T11:41:21.678Z,74.70
2023-12-05T11:44:14.486Z,75.27
2023-12-05T11:46:45.666Z,75.41
2023-12-05T11:49:14.711Z,75.56
2023-12-05T11:51:42.134Z,76.04
2023-12-05T11:54:09.665Z,75.61
2023-12-05T11:56:37.361Z,73.79
2023-12-05T11:59:21.530Z,73.51
2023-12-05T12:01:50.621Z,73.62
2023-12-05T12:04:20.643Z,74.15
2023-12-05T12:06:49.345Z,74.30
2023-12-05T12:09:20.011Z,74.30
2023-12-05T12:11:48.711Z,74.41
2023-12-05T12:14:18.118Z,74.38
2023-12-05T12:16:48.896Z,75.52
2023-12-05T12:19:17.832Z,75.54
2023-12-05T12:21:48.993Z,75.37
2023-12-05T12:24:24.193Z,74.35
2023-12-05T12:26:55.536Z,75.14
2023-12-05T12:29:23.245Z,74.88
2023-12-05T12:31:53.657Z,75.25
2023-12-05T12:34:27.232Z,75.53
2023-12-05T12:36:56.945Z,76.11
2023-12-05T12:39:27.283Z,76.77
2023-12-05T12:41:59.937Z,77.14
2023-12-05T12:44:28.761Z,76.34
2023-12-05T12:46:57.694Z,76.72
2023-12-05T12:49:38.081Z,76.90
2023-12-05T12:52:07.189Z,77.24
2023-12-05T12:54:39.339Z,77.59
2023-12-05T12:57:08.447Z,77.84
2023-12-05T12:59:39.533Z,76.64
2023-12-05T13:02:09.033Z,76.65
2023-12-05T13:04:38.102Z,76.93
2023-12-05T13:07:06.560Z,77.33
2023-12-05T13:09:34.773Z,77.41
2023-12-05T13:12:02.336Z,76.60
2023-12-05T13:14:29.720Z,75.60
2023-12-05T13:16:57.611Z,77.19
2023-12-05T13:19:29.584Z,77.49
2023-12-05T13:21:57.192Z,78.06
2023-12-05T13:24:24.602Z,77.52
2023-12-05T13:26:54.095Z,76.73
2023-12-05T13:29:21.768Z,76.98
2023-12-05T13:31:50.049Z,76.27
2023-12-05T13:34:17.778Z,76.17
2023-12-05T13:36:45.724Z,76.66
2023-12-05T13:39:15.188Z,76.29
2023-12-05T13:41:43.050Z,76.86
2023-12-05T13:44:11.785Z,76.62
2023-12-05T13:46:40.502Z,76.11
2023-12-05T13:49:08.366Z,76.49
2023-12-05T13:51:36.643Z,77.31
2023-12-05T13:54:05.702Z,77.97
2023-12-05T13:56:33.680Z,77.33
2023-12-05T13:59:01.207Z,76.97
2023-12-05T14:01:28.947Z,77.28
2023-12-05T14:03:57.677Z,78.18
2023-12-05T14:06:25.372Z,77.45
2023-12-05T14:08:53.008Z,77.87
2023-12-05T14:11:20.503Z,77.86
2023-12-05T14:13:48.103Z,77.88
2023-12-05T14:16:16.148Z,77.74
2023-12-05T14:18:43.851Z,78.33
2023-12-05T14:21:11.643Z,78.34
2023-12-05T14:23:39.301Z,77.76
2023-12-05T14:26:06.843Z,78.18
2023-12-05T14:28:34.302Z,77.66
2023-12-05T14:31:01.967Z,77.49
2023-12-05T14:33:29.728Z,77.75
2023-12-05T14:35:57.288Z,78.07
2023-12-05T14:38:24.623Z,77.88
2023-12-05T14:40:52.206Z,78.23
2023-12-05T14:43:19.913Z,78.17
2023-12-05T14:45:47.338Z,78.57
2023-12-05T14:48:15.483Z,78.35
2023-12-05T14:50:43.044Z,78.63
2023-12-05T14:53:13.028Z,78.25
2023-12-05T14:55:40.869Z,78.76
2023-12-05T14:58:08.747Z,78.97
2023-12-05T15:00:36.523Z,78.95
2023-12-05T15:03:04.408Z,79.11
2023-12-05T15:05:33.307Z,78.97
2023-12-05T15:08:00.994Z,79.25
2023-12-05T15:10:28.599Z,79.68
2023-12-05T15:12:58.800Z,79.65
2023-12-05T15:15:27.108Z,80.26
2023-12-05T15:17:55.035Z,80.33
2023-12-05T15:20:24.216Z,80.09
2023-12-05T15:22:52.533Z,80.05
2023-12-05T15:25:20.423Z,79.70
2023-12-05T15:27:48.014Z,80.06
2023-12-05T15:30:15.673Z,80.47
2023-12-05T15:32:52.885Z,80.57
2023-12-05T15:35:24.286Z,80.14
2023-12-05T15:37:51.989Z,79.88
2023-12-05T15:40:19.390Z,79.77
2023-12-05T15:42:49.545Z,80.37
2023-12-05T15:45:20.030Z,80.56
2023-12-05T15:47:47.742Z,81.14
2023-12-05T15:50:18.616Z,80.94
2023-12-05T15:52:47.180Z,80.52
2023-12-05T15:55:16.368Z,80.08
2023-12-05T15:57:44.433Z,79.69
2023-12-05T16:00:12.678Z,80.03
2023-12-05T16:02:42.287Z,80.17
2023-12-05T16:05:10.185Z,80.18
2023-12-05T16:07:38.557Z,80.14
2023-12-05T16:10:07.587Z,80.96
2023-12-05T16:12:35.651Z,81.02
2023-12-05T16:15:04.939Z,81.00
2023-12-05T16:17:33.967Z,80.35
2023-12-05T16:20:01.481Z,80.21
2023-12-05T16:22:28.962Z,80.74
2023-12-05T16:24:56.428Z,81.06
2023-12-05T16:27:24.945Z,80.63
2023-12-05T16:29:52.343Z,80.58
2023-12-05T16:32:19.939Z,80.15
2023-12-05T16:34:47.503Z,80.01
2023-12-05T16:37:14.967Z,80.62
2023-12-05T16:39:42.432Z,80.60
2023-12-05T16:42:10.321Z,80.28
2023-12-05T16:44:43.161Z,80.31
2023-12-05T16:47:11.368Z,80.31
2023-12-05T16:49:38.817Z,79.74
2023-12-05T16:52:06.723Z,79.96
2023-12-05T16:54:34.330Z,80.84
2023-12-05T16:57:02.155Z,80.36
2023-12-05T16:59:34.042Z,80.28
2023-12-05T17:02:02.917Z,80.54
2023-12-05T17:04:30.448Z,80.39
2023-12-05T17:06:58.392Z,79.98
2023-12-05T17:09:25.857Z,79.46
2023-12-05T17:11:53.304Z,79.66
2023-12-05T17:14:20.789Z,80.33
2023-12-05T17:16:48.471Z,80.46
2023-12-05T17:19:15.915Z,80.78
2023-12-05T17:21:43.629Z,80.92
2023-12-05T17:24:11.522Z,80.83
2023-12-05T17:26:39.301Z,80.38
2023-12-05T17:29:06.716Z,80.17
2023-12-05T17:31:34.250Z,80.69
2023-12-05T17:34:01.767Z,81.17
2023-12-05T17:36:29.887Z,80.84
2023-12-05T17:38:57.448Z,80.44
2023-12-05T17:41:25.122Z,80.20
2023-12-05T17:43:52.652Z,80.74
2023-12-05T17:46:20.363Z,80.23
2023-12-05T17:48:47.941Z,80.38
2023-12-05T17:51:15.418Z,80.16
2023-12-05T17:53:42.774Z,80.36
2023-12-05T17:56:10.533Z,80.40
2023-12-05T17:58:38.077Z,80.38
2023-12-05T18:01:05.958Z,80.51
2023-12-05T18:03:33.481Z,80.14
2023-12-05T18:06:00.918Z,79.59
2023-12-05T18:08:28.525Z,79.77
2023-12-05T18:10:55.884Z,79.84
2023-12-05T18:13:23.413Z,79.84
2023-12-05T18:15:50.907Z,79.49
2023-12-05T18:18:18.362Z,79.46
2023-12-05T18:20:45.820Z,79.85
2023-12-05T18:23:14.002Z,79.74
2023-12-05T18:25:41.943Z,78.88
2023-12-05T18:28:09.439Z,78.82
2023-12-05T18:30:37.383Z,79.00
2023-12-05T18:33:05.104Z,79.10
2023-12-05T18:35:32.666Z,78.87
2023-12-05T18:38:00.290Z,78.87
2023-12-05T18:40:27.734Z,79.22
2023-12-05T18:42:55.208Z,79.67
2023-12-05T18:45:22.754Z,79.51
2023-12-05T18:47:50.442Z,79.55
2023-12-05T18:50:18.856Z,79.80
2023-12-05T18:52:46.261Z,79.82
2023-12-05T18:55:13.825Z,80.65
2023-12-05T18:57:43.401Z,80.04
2023-12-05T19:00:11.731Z,79.90
2023-12-05T19:02:39.038Z,80.28
2023-12-05T19:05:06.733Z,80.09
2023-12-05T19:07:34.152Z,80.02
2023-12-05T19:10:01.728Z,80.14
2023-12-05T19:12:29.130Z,80.26
2023-12-05T19:14:56.562Z,79.69
2023-12-05T19:17:24.366Z,79.79
2023-12-05T19:19:51.832Z,79.51
2023-12-05T19:22:19.276Z,79.94
2023-12-05T19:24:47.510Z,80.56
2023-12-05T19:27:15.072Z,80.38
2023-12-05T19:29:45.559Z,80.34
2023-12-05T19:32:13.091Z,80.04
2023-12-05T19:34:43.332Z,80.86
2023-12-05T19:37:12.523Z,80.61
2023-12-05T19:39:41.023Z,80.69
2023-12-05T19:42:08.771Z,80.78
2023-12-05T19:44:36.231Z,80.41
2023-12-05T19:47:03.783Z,81.21
2023-12-05T19:49:31.173Z,80.97
2023-12-05T19:51:59.168Z,81.06
2023-12-05T19:54:27.858Z,81.08
2023-12-05T19:56:55.296Z,81.57
2023-12-05T19:59:22.717Z,81.82
2023-12-05T20:01:50.267Z,82.08
2023-12-05T20:04:17.670Z,82.53
2023-12-05T20:06:45.298Z,82.55
2023-12-05T20:09:12.578Z,82.87
2023-12-05T20:11:40.016Z,81.97
2023-12-05T20:14:07.354Z,82.57
2023-12-05T20:16:34.663Z,83.52
2023-12-05T20:19:02.173Z,83.34
2023-12-05T20:21:29.836Z,83.80
2023-12-05T20:23:58.286Z,84.33
2023-12-05T20:26:25.832Z,84.48
2023-12-05T20:28:53.133Z,84.44
2023-12-05T20:31:20.882Z,84.54
2023-12-05T20:33:48.313Z,85.04
2023-12-05T20:36:15.817Z,85.02
2023-12-05T20:38:43.169Z,85.14
2023-12-05T20:41:10.772Z,84.70
2023-12-05T20:43:40.800Z,85.16
2023-12-05T20:46:09.002Z,85.51
2023-12-05T20:48:36.492Z,85.06
2023-12-05T20:51:04.648Z,85.06
2023-12-05T20:53:32.202Z,85.72
2023-12-05T20:55:59.576Z,86.20
2023-12-05T20:58:26.968Z,85.63
2023-12-05T21:00:54.512Z,85.76
2023-12-05T21:03:21.883Z,85.71
2023-12-05T21:05:49.401Z,86.10
2023-12-05T21:08:20.384Z,86.06
2023-12-05T21:10:47.852Z,86.08
2023-12-05T21:13:15.346Z,85.78
2023-12-05T21:15:43.156Z,85.50
2023-12-05T21:18:11.312Z,85.68
2023-12-05T21:20:38.803Z,85.71
2023-12-05T21:23:06.166Z,85.78
2023-12-05T21:25:33.544Z,85.83
2023-12-05T21:28:00.979Z,86.15
2023-12-05T21:30:28.373Z,86.39
2023-12-05T21:32:55.842Z,86.21
2023-12-05T21:35:23.686Z,86.27
2023-12-05T21:37:51.289Z,86.39
2023-12-05T21:40:18.715Z,86.39
2023-12-05T21:42:46.142Z,86.28
2023-12-05T21:45:13.709Z,86.44
2023-12-05T21:47:41.066Z,86.78
2023-12-05T21:50:08.957Z,86.38
2023-12-05T21:52:36.705Z,86.53
2023-12-05T21:55:04.448Z,85.66
2023-12-05T21:57:31.856Z,85.65
2023-12-05T21:59:59.334Z,86.14
2023-12-05T22:02:26.595Z,86.48
2023-12-05T22:04:53.997Z,86.57
2023-12-05T22:07:21.514Z,86.43
2023-12-05T22:09:49.037Z,86.68
2023-12-05T22:12:16.354Z,86.65
2023-12-05T22:14:43.760Z,86.80
2023-12-05T22:17:11.057Z,87.24
2023-12-05T22:19:38.483Z,87.21
2023-12-05T22:22:05.782Z,87.33
2023-12-05T22:24:33.551Z,87.13
2023-12-05T22:27:01.000Z,86.84
2023-12-05T22:29:28.513Z,86.65
2023-12-05T22:31:56.700Z,86.50
2023-12-05T22:34:24.158Z,86.66
2023-12-05T22:36:51.592Z,86.94
2023-12-05T22:39:19.154Z,86.92
2023-12-05T22:41:46.407Z,87.41
2023-12-05T22:44:13.806Z,87.46
2023-12-05T22:46:41.088Z,87.46
2023-12-05T22:49:08.757Z,87.44
2023-12-05T22:51:36.207Z,87.42
2023-12-05T22:54:03.592Z,86.92
2023-12-05T22:56:30.871Z,86.75
2023-12-05T22:58:58.219Z,86.98
2023-12-05T23:01:25.596Z,86.85
2023-12-05T23:03:53.975Z,87.34
2023-12-05T23:06:21.376Z,87.63
2023-12-05T23:08:48.722Z,87.39
2023-12-05T23:11:16.137Z,86.86
2023-12-05T23:13:44.436Z,87.07
2023-12-05T23:16:11.796Z,86.89
2023-12-05T23:18:39.328Z,87.54
2023-12-05T23:21:07.044Z,88.05
2023-12-05T23:23:34.336Z,87.96
2023-12-05T23:26:01.718Z,87.86
2023-12-05T23:28:29.233Z,88.03
2023-12-05T23:30:56.576Z,87.85
2023-12-05T23:33:24.088Z,87.57
2023-12-05T23:35:51.739Z,87.52
2023-12-05T23:38:19.145Z,87.57
2023-12-05T23:40:46.432Z,87.14
2023-12-05T23:43:13.840Z,87.14
2023-12-05T23:45:41.170Z,87.43
2023-12-05T23:48:08.612Z,87.81
2023-12-05T23:50:35.915Z,88.00
2023-12-05T23:53:03.327Z,88.26
2023-12-05T23:55:30.745Z,88.09
2023-12-05T23:57:58.171Z,88.07
